sensor_id;sensor_type;location;lat;lon;timestamp;P1;durP1;ratioP1;P2;durP2;ratioP2
46777;SDS011;32536;47.128;8.746;2023-05-07T00:01:33;2.55;;;1.88;;
46777;SDS011;32536;47.128;8.746;2023-05-07T00:04:00;2.38;;;1.88;;
46777;SDS011;32536;47.128;8.746;2023-05-07T00:06:27;1.85;;;0.90;;
46777;SDS011;32536;47.128;8.746;2023-05-07T00:08:56;2.97;;;2.47;;
46777;SDS011;32536;47.128;8.746;2023-05-07T00:11:23;1.85;;;0.90;;
46777;SDS011;32536;47.128;8.746;2023-05-07T00:17:33;2.20;;;1.27;;
46777;SDS011;32536;47.128;8.746;2023-05-07T00:20:00;2.25;;;2.00;;
46777;SDS011;32536;47.128;8.746;2023-05-07T00:22:26;1.85;;;1.00;;
46777;SDS011;32536;47.128;8.746;2023-05-07T00:24:55;1.83;;;0.73;;
46777;SDS011;32536;47.128;8.746;2023-05-07T00:27:22;1.67;;;0.85;;
46777;SDS011;32536;47.128;8.746;2023-05-07T00:29:49;2.38;;;1.15;;
46777;SDS011;32536;47.128;8.746;2023-05-07T00:32:16;3.25;;;1.25;;
46777;SDS011;32536;47.128;8.746;2023-05-07T00:34:43;2.45;;;1.13;;
46777;SDS011;32536;47.128;8.746;2023-05-07T00:37:10;1.85;;;1.15;;
46777;SDS011;32536;47.128;8.746;2023-05-07T00:39:37;3.00;;;1.02;;
46777;SDS011;32536;47.128;8.746;2023-05-07T00:42:04;1.02;;;0.70;;
46777;SDS011;32536;47.128;8.746;2023-05-07T00:44:34;1.02;;;0.70;;
46777;SDS011;32536;47.128;8.746;2023-05-07T00:47:01;2.30;;;1.02;;
46777;SDS011;32536;47.128;8.746;2023-05-07T00:49:39;2.10;;;1.13;;
46777;SDS011;32536;47.128;8.746;2023-05-07T00:52:11;1.50;;;0.88;;
46777;SDS011;32536;47.128;8.746;2023-05-07T00:54:40;1.42;;;0.98;;
46777;SDS011;32536;47.128;8.746;2023-05-07T00:57:09;1.20;;;0.60;;
46777;SDS011;32536;47.128;8.746;2023-05-07T01:02:06;1.40;;;0.80;;
46777;SDS011;32536;47.128;8.746;2023-05-07T01:04:33;1.38;;;0.80;;
46777;SDS011;32536;47.128;8.746;2023-05-07T01:07:00;1.27;;;0.82;;
46777;SDS011;32536;47.128;8.746;2023-05-07T01:09:27;2.35;;;0.80;;
46777;SDS011;32536;47.128;8.746;2023-05-07T01:11:55;1.73;;;1.05;;
46777;SDS011;32536;47.128;8.746;2023-05-07T01:14:24;1.60;;;1.13;;
46777;SDS011;32536;47.128;8.746;2023-05-07T01:16:51;1.15;;;0.70;;
46777;SDS011;32536;47.128;8.746;2023-05-07T01:19:18;1.25;;;0.73;;
46777;SDS011;32536;47.128;8.746;2023-05-07T01:21:46;1.17;;;0.82;;
46777;SDS011;32536;47.128;8.746;2023-05-07T01:24:14;1.40;;;0.80;;
46777;SDS011;32536;47.128;8.746;2023-05-07T01:26:45;1.33;;;0.80;;
46777;SDS011;32536;47.128;8.746;2023-05-07T01:29:11;2.58;;;1.10;;
46777;SDS011;32536;47.128;8.746;2023-05-07T01:31:38;1.75;;;0.98;;
46777;SDS011;32536;47.128;8.746;2023-05-07T01:34:08;2.00;;;0.95;;
46777;SDS011;32536;47.128;8.746;2023-05-07T01:36:38;1.27;;;0.57;;
46777;SDS011;32536;47.128;8.746;2023-05-07T01:39:05;1.25;;;0.70;;
46777;SDS011;32536;47.128;8.746;2023-05-07T01:41:33;2.05;;;1.05;;
46777;SDS011;32536;47.128;8.746;2023-05-07T01:44:00;1.05;;;0.70;;
46777;SDS011;32536;47.128;8.746;2023-05-07T01:46:30;1.20;;;0.82;;
46777;SDS011;32536;47.128;8.746;2023-05-07T01:48:58;0.90;;;0.70;;
46777;SDS011;32536;47.128;8.746;2023-05-07T01:51:25;1.33;;;0.77;;
46777;SDS011;32536;47.128;8.746;2023-05-07T01:53:52;1.08;;;0.80;;
46777;SDS011;32536;47.128;8.746;2023-05-07T01:56:19;1.30;;;0.80;;
46777;SDS011;32536;47.128;8.746;2023-05-07T01:58:46;1.35;;;0.70;;
46777;SDS011;32536;47.128;8.746;2023-05-07T02:01:13;2.03;;;0.98;;
46777;SDS011;32536;47.128;8.746;2023-05-07T02:03:40;4.82;;;1.83;;
46777;SDS011;32536;47.128;8.746;2023-05-07T02:06:07;11.80;;;5.30;;
46777;SDS011;32536;47.128;8.746;2023-05-07T02:08:33;8.05;;;3.30;;
46777;SDS011;32536;47.128;8.746;2023-05-07T02:11:00;5.80;;;2.20;;
46777;SDS011;32536;47.128;8.746;2023-05-07T02:13:31;5.13;;;2.05;;
46777;SDS011;32536;47.128;8.746;2023-05-07T02:16:00;3.53;;;1.55;;
46777;SDS011;32536;47.128;8.746;2023-05-07T02:18:27;2.42;;;1.20;;
46777;SDS011;32536;47.128;8.746;2023-05-07T02:20:54;2.80;;;1.52;;
46777;SDS011;32536;47.128;8.746;2023-05-07T02:23:21;1.70;;;0.93;;
46777;SDS011;32536;47.128;8.746;2023-05-07T02:25:48;2.05;;;1.10;;
46777;SDS011;32536;47.128;8.746;2023-05-07T02:28:14;2.85;;;1.00;;
46777;SDS011;32536;47.128;8.746;2023-05-07T02:30:41;1.60;;;0.90;;
46777;SDS011;32536;47.128;8.746;2023-05-07T02:33:08;2.22;;;1.98;;
46777;SDS011;32536;47.128;8.746;2023-05-07T02:35:35;1.15;;;0.77;;
46777;SDS011;32536;47.128;8.746;2023-05-07T02:38:01;1.52;;;0.88;;
46777;SDS011;32536;47.128;8.746;2023-05-07T02:40:28;1.17;;;0.63;;
46777;SDS011;32536;47.128;8.746;2023-05-07T02:42:55;0.98;;;0.77;;
46777;SDS011;32536;47.128;8.746;2023-05-07T02:48:10;1.75;;;0.80;;
46777;SDS011;32536;47.128;8.746;2023-05-07T02:50:37;1.60;;;1.50;;
46777;SDS011;32536;47.128;8.746;2023-05-07T02:53:04;2.13;;;1.25;;
46777;SDS011;32536;47.128;8.746;2023-05-07T02:55:30;1.08;;;0.70;;
46777;SDS011;32536;47.128;8.746;2023-05-07T02:57:57;1.30;;;0.80;;
46777;SDS011;32536;47.128;8.746;2023-05-07T03:00:24;1.35;;;1.02;;
46777;SDS011;32536;47.128;8.746;2023-05-07T03:02:51;1.25;;;0.80;;
46777;SDS011;32536;47.128;8.746;2023-05-07T03:05:17;1.40;;;0.82;;
46777;SDS011;32536;47.128;8.746;2023-05-07T03:07:44;1.60;;;0.73;;
46777;SDS011;32536;47.128;8.746;2023-05-07T03:10:11;1.42;;;0.80;;
46777;SDS011;32536;47.128;8.746;2023-05-07T03:12:38;2.25;;;1.67;;
46777;SDS011;32536;47.128;8.746;2023-05-07T03:15:05;1.63;;;1.13;;
46777;SDS011;32536;47.128;8.746;2023-05-07T03:17:32;1.50;;;0.85;;
46777;SDS011;32536;47.128;8.746;2023-05-07T03:19:59;1.90;;;0.82;;
46777;SDS011;32536;47.128;8.746;2023-05-07T03:22:25;1.45;;;0.90;;
46777;SDS011;32536;47.128;8.746;2023-05-07T03:24:52;1.98;;;1.25;;
46777;SDS011;32536;47.128;8.746;2023-05-07T03:27:19;1.67;;;1.05;;
46777;SDS011;32536;47.128;8.746;2023-05-07T03:29:46;1.58;;;1.45;;
46777;SDS011;32536;47.128;8.746;2023-05-07T03:32:12;2.05;;;0.88;;
46777;SDS011;32536;47.128;8.746;2023-05-07T03:34:40;2.53;;;1.10;;
46777;SDS011;32536;47.128;8.746;2023-05-07T03:37:06;2.15;;;1.33;;
46777;SDS011;32536;47.128;8.746;2023-05-07T03:39:33;1.23;;;0.73;;
46777;SDS011;32536;47.128;8.746;2023-05-07T03:42:00;1.20;;;0.80;;
46777;SDS011;32536;47.128;8.746;2023-05-07T03:44:26;2.05;;;1.35;;
46777;SDS011;32536;47.128;8.746;2023-05-07T03:46:53;1.50;;;1.02;;
46777;SDS011;32536;47.128;8.746;2023-05-07T03:49:21;1.35;;;0.68;;
46777;SDS011;32536;47.128;8.746;2023-05-07T03:51:47;1.23;;;0.75;;
46777;SDS011;32536;47.128;8.746;2023-05-07T03:54:14;1.42;;;1.20;;
46777;SDS011;32536;47.128;8.746;2023-05-07T03:56:41;1.48;;;0.93;;
46777;SDS011;32536;47.128;8.746;2023-05-07T03:59:07;2.47;;;1.15;;
46777;SDS011;32536;47.128;8.746;2023-05-07T04:01:34;2.08;;;1.25;;
46777;SDS011;32536;47.128;8.746;2023-05-07T04:04:01;1.85;;;1.10;;
46777;SDS011;32536;47.128;8.746;2023-05-07T04:06:28;1.73;;;1.05;;
46777;SDS011;32536;47.128;8.746;2023-05-07T04:08:56;0.95;;;0.70;;
46777;SDS011;32536;47.128;8.746;2023-05-07T04:11:22;1.55;;;0.80;;
46777;SDS011;32536;47.128;8.746;2023-05-07T04:13:49;1.15;;;0.82;;
46777;SDS011;32536;47.128;8.746;2023-05-07T04:16:16;1.83;;;1.17;;
46777;SDS011;32536;47.128;8.746;2023-05-07T04:18:42;1.42;;;0.82;;
46777;SDS011;32536;47.128;8.746;2023-05-07T04:21:15;1.63;;;0.88;;
46777;SDS011;32536;47.128;8.746;2023-05-07T04:23:43;1.45;;;0.90;;
46777;SDS011;32536;47.128;8.746;2023-05-07T04:26:14;1.23;;;0.93;;
46777;SDS011;32536;47.128;8.746;2023-05-07T04:28:41;1.48;;;0.88;;
46777;SDS011;32536;47.128;8.746;2023-05-07T04:31:08;1.63;;;1.00;;
46777;SDS011;32536;47.128;8.746;2023-05-07T04:33:35;1.98;;;1.25;;
46777;SDS011;32536;47.128;8.746;2023-05-07T04:36:02;2.10;;;1.00;;
46777;SDS011;32536;47.128;8.746;2023-05-07T04:38:29;2.25;;;1.05;;
46777;SDS011;32536;47.128;8.746;2023-05-07T04:40:58;1.40;;;0.82;;
46777;SDS011;32536;47.128;8.746;2023-05-07T04:43:29;1.25;;;0.85;;
46777;SDS011;32536;47.128;8.746;2023-05-07T04:45:56;1.48;;;0.90;;
46777;SDS011;32536;47.128;8.746;2023-05-07T04:48:23;1.55;;;1.00;;
46777;SDS011;32536;47.128;8.746;2023-05-07T04:50:50;1.30;;;0.77;;
46777;SDS011;32536;47.128;8.746;2023-05-07T04:53:17;1.40;;;0.75;;
46777;SDS011;32536;47.128;8.746;2023-05-07T04:55:44;1.88;;;0.80;;
46777;SDS011;32536;47.128;8.746;2023-05-07T04:58:11;1.13;;;0.88;;
46777;SDS011;32536;47.128;8.746;2023-05-07T05:00:38;1.08;;;0.77;;
46777;SDS011;32536;47.128;8.746;2023-05-07T05:03:06;1.88;;;1.10;;
46777;SDS011;32536;47.128;8.746;2023-05-07T05:05:33;1.45;;;0.80;;
46777;SDS011;32536;47.128;8.746;2023-05-07T05:07:59;2.13;;;1.70;;
46777;SDS011;32536;47.128;8.746;2023-05-07T05:10:26;1.30;;;0.70;;
46777;SDS011;32536;47.128;8.746;2023-05-07T05:12:53;1.20;;;0.85;;
46777;SDS011;32536;47.128;8.746;2023-05-07T05:15:20;1.17;;;0.70;;
46777;SDS011;32536;47.128;8.746;2023-05-07T05:17:46;1.10;;;0.60;;
46777;SDS011;32536;47.128;8.746;2023-05-07T05:20:13;1.38;;;0.80;;
46777;SDS011;32536;47.128;8.746;2023-05-07T05:22:41;2.70;;;0.90;;
46777;SDS011;32536;47.128;8.746;2023-05-07T05:25:08;1.70;;;0.82;;
46777;SDS011;32536;47.128;8.746;2023-05-07T05:27:35;1.40;;;0.90;;
46777;SDS011;32536;47.128;8.746;2023-05-07T05:30:02;1.30;;;1.00;;
46777;SDS011;32536;47.128;8.746;2023-05-07T05:32:31;3.00;;;2.33;;
46777;SDS011;32536;47.128;8.746;2023-05-07T05:34:57;2.63;;;1.23;;
46777;SDS011;32536;47.128;8.746;2023-05-07T05:37:24;2.10;;;1.25;;
46777;SDS011;32536;47.128;8.746;2023-05-07T05:39:51;1.83;;;1.20;;
46777;SDS011;32536;47.128;8.746;2023-05-07T05:42:20;2.78;;;1.83;;
46777;SDS011;32536;47.128;8.746;2023-05-07T05:44:47;1.92;;;0.95;;
46777;SDS011;32536;47.128;8.746;2023-05-07T05:47:14;2.50;;;1.42;;
46777;SDS011;32536;47.128;8.746;2023-05-07T05:49:40;2.55;;;1.73;;
46777;SDS011;32536;47.128;8.746;2023-05-07T05:52:09;4.13;;;2.42;;
46777;SDS011;32536;47.128;8.746;2023-05-07T05:54:39;2.25;;;1.83;;
46777;SDS011;32536;47.128;8.746;2023-05-07T05:57:06;2.35;;;1.08;;
46777;SDS011;32536;47.128;8.746;2023-05-07T05:59:33;2.83;;;2.63;;
46777;SDS011;32536;47.128;8.746;2023-05-07T06:01:59;1.63;;;1.05;;
46777;SDS011;32536;47.128;8.746;2023-05-07T06:04:26;1.42;;;0.93;;
46777;SDS011;32536;47.128;8.746;2023-05-07T06:06:53;2.75;;;0.98;;
46777;SDS011;32536;47.128;8.746;2023-05-07T06:09:20;1.83;;;0.90;;
46777;SDS011;32536;47.128;8.746;2023-05-07T06:11:46;2.92;;;1.15;;
46777;SDS011;32536;47.128;8.746;2023-05-07T06:14:13;1.67;;;0.82;;
46777;SDS011;32536;47.128;8.746;2023-05-07T06:16:40;1.88;;;0.88;;
46777;SDS011;32536;47.128;8.746;2023-05-07T06:19:07;1.50;;;0.90;;
46777;SDS011;32536;47.128;8.746;2023-05-07T06:21:34;1.38;;;0.95;;
46777;SDS011;32536;47.128;8.746;2023-05-07T06:24:00;1.75;;;0.80;;
46777;SDS011;32536;47.128;8.746;2023-05-07T06:26:27;1.20;;;0.85;;
46777;SDS011;32536;47.128;8.746;2023-05-07T06:28:54;1.83;;;1.15;;
46777;SDS011;32536;47.128;8.746;2023-05-07T06:31:20;2.13;;;1.27;;
46777;SDS011;32536;47.128;8.746;2023-05-07T06:33:48;1.90;;;1.15;;
46777;SDS011;32536;47.128;8.746;2023-05-07T06:36:15;1.38;;;0.80;;
46777;SDS011;32536;47.128;8.746;2023-05-07T06:38:42;1.33;;;0.93;;
46777;SDS011;32536;47.128;8.746;2023-05-07T06:41:08;1.48;;;0.80;;
46777;SDS011;32536;47.128;8.746;2023-05-07T06:43:35;1.52;;;1.05;;
46777;SDS011;32536;47.128;8.746;2023-05-07T06:46:02;2.17;;;1.20;;
46777;SDS011;32536;47.128;8.746;2023-05-07T06:48:29;1.58;;;0.80;;
46777;SDS011;32536;47.128;8.746;2023-05-07T06:50:55;1.90;;;1.20;;
46777;SDS011;32536;47.128;8.746;2023-05-07T06:53:23;1.98;;;1.02;;
46777;SDS011;32536;47.128;8.746;2023-05-07T06:55:51;1.50;;;1.00;;
46777;SDS011;32536;47.128;8.746;2023-05-07T06:58:18;1.52;;;0.88;;
46777;SDS011;32536;47.128;8.746;2023-05-07T07:00:44;1.30;;;0.90;;
46777;SDS011;32536;47.128;8.746;2023-05-07T07:03:11;1.40;;;0.63;;
46777;SDS011;32536;47.128;8.746;2023-05-07T07:05:39;1.35;;;0.80;;
46777;SDS011;32536;47.128;8.746;2023-05-07T07:08:07;1.63;;;1.00;;
46777;SDS011;32536;47.128;8.746;2023-05-07T07:10:34;2.65;;;1.10;;
46777;SDS011;32536;47.128;8.746;2023-05-07T07:13:01;1.75;;;1.33;;
46777;SDS011;32536;47.128;8.746;2023-05-07T07:15:28;2.30;;;1.10;;
46777;SDS011;32536;47.128;8.746;2023-05-07T07:17:55;2.13;;;1.60;;
46777;SDS011;32536;47.128;8.746;2023-05-07T07:20:21;2.15;;;1.13;;
46777;SDS011;32536;47.128;8.746;2023-05-07T07:22:48;1.98;;;1.17;;
46777;SDS011;32536;47.128;8.746;2023-05-07T07:25:15;2.10;;;1.30;;
46777;SDS011;32536;47.128;8.746;2023-05-07T07:27:41;1.98;;;0.90;;
46777;SDS011;32536;47.128;8.746;2023-05-07T07:30:08;1.20;;;0.80;;
46777;SDS011;32536;47.128;8.746;2023-05-07T07:32:35;2.90;;;1.38;;
46777;SDS011;32536;47.128;8.746;2023-05-07T07:35:02;2.78;;;1.35;;
46777;SDS011;32536;47.128;8.746;2023-05-07T07:37:30;2.80;;;1.60;;
46777;SDS011;32536;47.128;8.746;2023-05-07T07:39:56;4.20;;;1.90;;
46777;SDS011;32536;47.128;8.746;2023-05-07T07:42:23;3.15;;;1.63;;
46777;SDS011;32536;47.128;8.746;2023-05-07T07:44:50;3.33;;;1.40;;
46777;SDS011;32536;47.128;8.746;2023-05-07T07:47:17;3.35;;;1.20;;
46777;SDS011;32536;47.128;8.746;2023-05-07T07:49:44;2.20;;;1.13;;
46777;SDS011;32536;47.128;8.746;2023-05-07T07:52:11;1.95;;;1.13;;
46777;SDS011;32536;47.128;8.746;2023-05-07T07:54:37;1.75;;;0.73;;
46777;SDS011;32536;47.128;8.746;2023-05-07T07:57:04;1.60;;;0.98;;
46777;SDS011;32536;47.128;8.746;2023-05-07T07:59:31;1.95;;;0.95;;
46777;SDS011;32536;47.128;8.746;2023-05-07T08:01:58;1.80;;;0.95;;
46777;SDS011;32536;47.128;8.746;2023-05-07T08:04:24;2.33;;;0.90;;
46777;SDS011;32536;47.128;8.746;2023-05-07T08:06:51;2.15;;;1.55;;
46777;SDS011;32536;47.128;8.746;2023-05-07T08:09:19;3.17;;;1.08;;
46777;SDS011;32536;47.128;8.746;2023-05-07T08:11:46;1.30;;;0.75;;
46777;SDS011;32536;47.128;8.746;2023-05-07T08:14:13;2.90;;;1.38;;
46777;SDS011;32536;47.128;8.746;2023-05-07T08:16:41;2.42;;;1.05;;
46777;SDS011;32536;47.128;8.746;2023-05-07T08:19:07;2.60;;;1.25;;
46777;SDS011;32536;47.128;8.746;2023-05-07T08:21:34;1.88;;;0.90;;
46777;SDS011;32536;47.128;8.746;2023-05-07T08:24:04;2.45;;;1.13;;
46777;SDS011;32536;47.128;8.746;2023-05-07T08:26:31;2.83;;;2.13;;
46777;SDS011;32536;47.128;8.746;2023-05-07T08:28:57;1.80;;;0.90;;
46777;SDS011;32536;47.128;8.746;2023-05-07T08:31:24;3.42;;;1.23;;
46777;SDS011;32536;47.128;8.746;2023-05-07T08:33:51;1.40;;;0.90;;
46777;SDS011;32536;47.128;8.746;2023-05-07T08:36:18;2.22;;;1.15;;
46777;SDS011;32536;47.128;8.746;2023-05-07T08:38:44;2.92;;;1.23;;
46777;SDS011;32536;47.128;8.746;2023-05-07T08:41:11;1.88;;;1.05;;
46777;SDS011;32536;47.128;8.746;2023-05-07T08:43:38;2.00;;;0.82;;
46777;SDS011;32536;47.128;8.746;2023-05-07T08:46:08;1.65;;;1.13;;
46777;SDS011;32536;47.128;8.746;2023-05-07T08:48:36;1.55;;;1.02;;
46777;SDS011;32536;47.128;8.746;2023-05-07T08:51:03;1.05;;;0.70;;
46777;SDS011;32536;47.128;8.746;2023-05-07T08:53:30;1.23;;;0.70;;
46777;SDS011;32536;47.128;8.746;2023-05-07T08:55:58;1.85;;;0.90;;
46777;SDS011;32536;47.128;8.746;2023-05-07T08:58:25;1.42;;;0.82;;
46777;SDS011;32536;47.128;8.746;2023-05-07T09:00:52;1.98;;;1.35;;
46777;SDS011;32536;47.128;8.746;2023-05-07T09:03:20;1.30;;;0.73;;
46777;SDS011;32536;47.128;8.746;2023-05-07T09:05:46;2.88;;;0.95;;
46777;SDS011;32536;47.128;8.746;2023-05-07T09:08:32;1.27;;;0.70;;
46777;SDS011;32536;47.128;8.746;2023-05-07T09:11:01;1.67;;;0.77;;
46777;SDS011;32536;47.128;8.746;2023-05-07T09:13:28;1.23;;;0.85;;
46777;SDS011;32536;47.128;8.746;2023-05-07T09:15:55;1.00;;;0.68;;
46777;SDS011;32536;47.128;8.746;2023-05-07T09:18:25;1.10;;;0.60;;
46777;SDS011;32536;47.128;8.746;2023-05-07T09:20:52;1.13;;;0.50;;
46777;SDS011;32536;47.128;8.746;2023-05-07T09:23:19;1.20;;;0.80;;
46777;SDS011;32536;47.128;8.746;2023-05-07T09:25:46;2.00;;;1.63;;
46777;SDS011;32536;47.128;8.746;2023-05-07T09:28:13;1.10;;;0.80;;
46777;SDS011;32536;47.128;8.746;2023-05-07T09:30:40;1.60;;;0.80;;
46777;SDS011;32536;47.128;8.746;2023-05-07T09:33:06;2.15;;;1.08;;
46777;SDS011;32536;47.128;8.746;2023-05-07T09:35:33;1.75;;;1.05;;
46777;SDS011;32536;47.128;8.746;2023-05-07T09:38:00;2.15;;;0.98;;
46777;SDS011;32536;47.128;8.746;2023-05-07T09:40:28;2.42;;;0.93;;
46777;SDS011;32536;47.128;8.746;2023-05-07T09:42:56;3.20;;;1.15;;
46777;SDS011;32536;47.128;8.746;2023-05-07T09:48:39;1.38;;;0.70;;
46777;SDS011;32536;47.128;8.746;2023-05-07T09:54:00;2.05;;;0.90;;
46777;SDS011;32536;47.128;8.746;2023-05-07T09:56:32;1.58;;;0.90;;
46777;SDS011;32536;47.128;8.746;2023-05-07T09:58:59;1.90;;;1.48;;
46777;SDS011;32536;47.128;8.746;2023-05-07T10:01:27;1.08;;;0.77;;
46777;SDS011;32536;47.128;8.746;2023-05-07T10:03:55;1.45;;;1.00;;
46777;SDS011;32536;47.128;8.746;2023-05-07T10:06:24;1.35;;;0.80;;
46777;SDS011;32536;47.128;8.746;2023-05-07T10:08:51;1.27;;;0.60;;
46777;SDS011;32536;47.128;8.746;2023-05-07T10:11:19;1.20;;;0.80;;
46777;SDS011;32536;47.128;8.746;2023-05-07T10:13:48;1.10;;;0.68;;
46777;SDS011;32536;47.128;8.746;2023-05-07T10:16:19;1.02;;;0.60;;
46777;SDS011;32536;47.128;8.746;2023-05-07T10:18:49;0.98;;;0.70;;
46777;SDS011;32536;47.128;8.746;2023-05-07T10:21:18;1.73;;;1.00;;
46777;SDS011;32536;47.128;8.746;2023-05-07T10:23:50;1.25;;;0.60;;
46777;SDS011;32536;47.128;8.746;2023-05-07T10:26:23;1.38;;;0.88;;
46777;SDS011;32536;47.128;8.746;2023-05-07T10:29:05;1.35;;;0.85;;
46777;SDS011;32536;47.128;8.746;2023-05-07T10:34:46;1.23;;;0.70;;
46777;SDS011;32536;47.128;8.746;2023-05-07T10:37:16;1.50;;;0.75;;
46777;SDS011;32536;47.128;8.746;2023-05-07T10:39:44;1.45;;;0.70;;
46777;SDS011;32536;47.128;8.746;2023-05-07T10:42:11;0.98;;;0.60;;
46777;SDS011;32536;47.128;8.746;2023-05-07T10:44:40;1.48;;;0.85;;
46777;SDS011;32536;47.128;8.746;2023-05-07T10:47:08;1.65;;;1.00;;
46777;SDS011;32536;47.128;8.746;2023-05-07T10:54:43;1.00;;;0.75;;
46777;SDS011;32536;47.128;8.746;2023-05-07T10:59:58;1.08;;;0.68;;
46777;SDS011;32536;47.128;8.746;2023-05-07T11:03:11;1.95;;;0.85;;
46777;SDS011;32536;47.128;8.746;2023-05-07T11:05:28;1.42;;;0.70;;
46777;SDS011;32536;47.128;8.746;2023-05-07T11:07:57;1.35;;;0.77;;
46777;SDS011;32536;47.128;8.746;2023-05-07T11:16:19;2.05;;;1.00;;
46777;SDS011;32536;47.128;8.746;2023-05-07T11:18:49;1.65;;;0.90;;
46777;SDS011;32536;47.128;8.746;2023-05-07T11:21:37;2.30;;;1.67;;
46777;SDS011;32536;47.128;8.746;2023-05-07T11:24:06;2.03;;;1.20;;
46777;SDS011;32536;47.128;8.746;2023-05-07T11:26:42;1.73;;;0.98;;
46777;SDS011;32536;47.128;8.746;2023-05-07T11:29:12;1.30;;;0.75;;
46777;SDS011;32536;47.128;8.746;2023-05-07T11:31:42;1.20;;;0.60;;
46777;SDS011;32536;47.128;8.746;2023-05-07T11:34:09;1.40;;;0.90;;
46777;SDS011;32536;47.128;8.746;2023-05-07T11:36:41;1.98;;;0.95;;
46777;SDS011;32536;47.128;8.746;2023-05-07T11:39:28;1.73;;;0.98;;
46777;SDS011;32536;47.128;8.746;2023-05-07T11:41:59;2.38;;;1.70;;
46777;SDS011;32536;47.128;8.746;2023-05-07T11:44:43;1.80;;;1.42;;
46777;SDS011;32536;47.128;8.746;2023-05-07T11:47:11;2.50;;;0.95;;
46777;SDS011;32536;47.128;8.746;2023-05-07T11:49:47;2.05;;;0.90;;
46777;SDS011;32536;47.128;8.746;2023-05-07T11:52:15;2.50;;;1.90;;
46777;SDS011;32536;47.128;8.746;2023-05-07T11:54:49;1.73;;;1.30;;
46777;SDS011;32536;47.128;8.746;2023-05-07T11:57:24;2.58;;;1.65;;
46777;SDS011;32536;47.128;8.746;2023-05-07T11:59:54;2.53;;;1.77;;
46777;SDS011;32536;47.128;8.746;2023-05-07T12:02:23;2.55;;;1.95;;
46777;SDS011;32536;47.128;8.746;2023-05-07T12:04:50;2.53;;;1.52;;
46777;SDS011;32536;47.128;8.746;2023-05-07T12:07:20;2.75;;;1.67;;
46777;SDS011;32536;47.128;8.746;2023-05-07T12:09:49;2.22;;;1.67;;
46777;SDS011;32536;47.128;8.746;2023-05-07T12:12:16;2.15;;;1.17;;
46777;SDS011;32536;47.128;8.746;2023-05-07T12:14:43;2.53;;;1.42;;
46777;SDS011;32536;47.128;8.746;2023-05-07T12:17:12;2.38;;;1.67;;
46777;SDS011;32536;47.128;8.746;2023-05-07T12:19:41;3.00;;;2.47;;
46777;SDS011;32536;47.128;8.746;2023-05-07T12:22:10;2.65;;;1.85;;
46777;SDS011;32536;47.128;8.746;2023-05-07T12:27:14;3.08;;;1.60;;
46777;SDS011;32536;47.128;8.746;2023-05-07T12:29:46;2.47;;;1.30;;
46777;SDS011;32536;47.128;8.746;2023-05-07T12:34:42;2.03;;;1.63;;
46777;SDS011;32536;47.128;8.746;2023-05-07T12:37:09;2.22;;;1.52;;
46777;SDS011;32536;47.128;8.746;2023-05-07T12:39:36;2.35;;;1.60;;
46777;SDS011;32536;47.128;8.746;2023-05-07T12:42:03;2.30;;;1.30;;
46777;SDS011;32536;47.128;8.746;2023-05-07T12:44:31;3.90;;;1.83;;
46777;SDS011;32536;47.128;8.746;2023-05-07T12:47:02;3.25;;;1.90;;
46777;SDS011;32536;47.128;8.746;2023-05-07T12:49:29;3.40;;;1.80;;
46777;SDS011;32536;47.128;8.746;2023-05-07T12:51:56;4.60;;;2.13;;
46777;SDS011;32536;47.128;8.746;2023-05-07T12:54:33;2.47;;;1.67;;
46777;SDS011;32536;47.128;8.746;2023-05-07T12:57:03;2.50;;;1.23;;
46777;SDS011;32536;47.128;8.746;2023-05-07T12:59:41;2.83;;;1.88;;
46777;SDS011;32536;47.128;8.746;2023-05-07T13:02:08;2.80;;;1.98;;
46777;SDS011;32536;47.128;8.746;2023-05-07T13:04:35;2.88;;;2.30;;
46777;SDS011;32536;47.128;8.746;2023-05-07T13:07:02;2.42;;;1.30;;
46777;SDS011;32536;47.128;8.746;2023-05-07T13:09:29;2.83;;;1.15;;
46777;SDS011;32536;47.128;8.746;2023-05-07T13:11:57;1.88;;;1.00;;
46777;SDS011;32536;47.128;8.746;2023-05-07T13:14:27;2.15;;;1.27;;
46777;SDS011;32536;47.128;8.746;2023-05-07T13:16:54;2.72;;;1.83;;
46777;SDS011;32536;47.128;8.746;2023-05-07T13:19:20;2.65;;;1.25;;
46777;SDS011;32536;47.128;8.746;2023-05-07T13:21:47;2.80;;;1.52;;
46777;SDS011;32536;47.128;8.746;2023-05-07T13:24:15;2.47;;;1.33;;
46777;SDS011;32536;47.128;8.746;2023-05-07T13:26:41;3.08;;;2.08;;
46777;SDS011;32536;47.128;8.746;2023-05-07T13:29:08;3.17;;;1.60;;
46777;SDS011;32536;47.128;8.746;2023-05-07T13:31:35;3.47;;;2.15;;
46777;SDS011;32536;47.128;8.746;2023-05-07T13:34:02;2.45;;;1.05;;
46777;SDS011;32536;47.128;8.746;2023-05-07T13:36:28;1.88;;;1.05;;
46777;SDS011;32536;47.128;8.746;2023-05-07T13:38:58;2.67;;;1.63;;
46777;SDS011;32536;47.128;8.746;2023-05-07T13:41:26;2.33;;;0.93;;
46777;SDS011;32536;47.128;8.746;2023-05-07T13:43:52;2.88;;;1.70;;
46777;SDS011;32536;47.128;8.746;2023-05-07T13:46:22;1.58;;;0.90;;
46777;SDS011;32536;47.128;8.746;2023-05-07T13:48:49;2.75;;;0.90;;
46777;SDS011;32536;47.128;8.746;2023-05-07T13:51:16;3.03;;;1.17;;
46777;SDS011;32536;47.128;8.746;2023-05-07T13:53:43;1.95;;;1.02;;
46777;SDS011;32536;47.128;8.746;2023-05-07T13:56:10;3.15;;;1.20;;
46777;SDS011;32536;47.128;8.746;2023-05-07T13:58:37;2.80;;;2.00;;
46777;SDS011;32536;47.128;8.746;2023-05-07T14:01:03;3.28;;;1.10;;
46777;SDS011;32536;47.128;8.746;2023-05-07T14:03:30;2.90;;;1.10;;
46777;SDS011;32536;47.128;8.746;2023-05-07T14:05:59;2.90;;;0.95;;
46777;SDS011;32536;47.128;8.746;2023-05-07T14:08:27;2.22;;;1.25;;
46777;SDS011;32536;47.128;8.746;2023-05-07T14:10:54;3.83;;;1.98;;
46777;SDS011;32536;47.128;8.746;2023-05-07T14:13:20;4.18;;;3.00;;
46777;SDS011;32536;47.128;8.746;2023-05-07T14:15:47;3.30;;;1.92;;
46777;SDS011;32536;47.128;8.746;2023-05-07T14:18:14;5.70;;;2.50;;
46777;SDS011;32536;47.128;8.746;2023-05-07T14:20:42;3.17;;;2.13;;
46777;SDS011;32536;47.128;8.746;2023-05-07T14:23:09;3.03;;;1.23;;
46777;SDS011;32536;47.128;8.746;2023-05-07T14:25:36;2.70;;;1.30;;
46777;SDS011;32536;47.128;8.746;2023-05-07T14:28:02;2.90;;;1.70;;
46777;SDS011;32536;47.128;8.746;2023-05-07T14:30:29;4.18;;;2.38;;
46777;SDS011;32536;47.128;8.746;2023-05-07T14:32:56;4.05;;;2.28;;
46777;SDS011;32536;47.128;8.746;2023-05-07T14:35:23;5.85;;;3.03;;
46777;SDS011;32536;47.128;8.746;2023-05-07T14:37:49;5.22;;;2.55;;
46777;SDS011;32536;47.128;8.746;2023-05-07T14:40:16;4.07;;;2.22;;
46777;SDS011;32536;47.128;8.746;2023-05-07T14:42:43;5.40;;;3.03;;
46777;SDS011;32536;47.128;8.746;2023-05-07T14:45:10;5.55;;;2.78;;
46777;SDS011;32536;47.128;8.746;2023-05-07T14:47:37;5.30;;;2.45;;
46777;SDS011;32536;47.128;8.746;2023-05-07T14:50:03;4.50;;;2.55;;
46777;SDS011;32536;47.128;8.746;2023-05-07T14:52:31;3.65;;;1.92;;
46777;SDS011;32536;47.128;8.746;2023-05-07T14:54:57;5.22;;;3.10;;
46777;SDS011;32536;47.128;8.746;2023-05-07T14:57:24;4.55;;;2.70;;
46777;SDS011;32536;47.128;8.746;2023-05-07T14:59:51;5.85;;;3.55;;
46777;SDS011;32536;47.128;8.746;2023-05-07T15:02:18;6.72;;;3.92;;
46777;SDS011;32536;47.128;8.746;2023-05-07T15:04:44;4.63;;;2.85;;
46777;SDS011;32536;47.128;8.746;2023-05-07T15:07:14;4.95;;;2.40;;
46777;SDS011;32536;47.128;8.746;2023-05-07T15:09:42;3.63;;;1.83;;
46777;SDS011;32536;47.128;8.746;2023-05-07T15:12:09;3.53;;;2.13;;
46777;SDS011;32536;47.128;8.746;2023-05-07T15:14:37;3.35;;;1.90;;
46777;SDS011;32536;47.128;8.746;2023-05-07T15:17:04;2.28;;;1.25;;
46777;SDS011;32536;47.128;8.746;2023-05-07T15:19:31;3.00;;;1.50;;
46777;SDS011;32536;47.128;8.746;2023-05-07T15:21:58;2.17;;;1.27;;
46777;SDS011;32536;47.128;8.746;2023-05-07T15:24:29;1.60;;;1.02;;
46777;SDS011;32536;47.128;8.746;2023-05-07T15:26:56;1.27;;;0.90;;
46777;SDS011;32536;47.128;8.746;2023-05-07T15:29:24;2.05;;;1.17;;